createdAt,value
2023-06-10T00:01:34.133Z,415.9
2023-06-10T00:03:17.833Z,411.8
2023-06-10T00:05:01.531Z,412.9
2023-06-10T00:06:45.239Z,413.2
2023-06-10T00:08:28.942Z,408.9
2023-06-10T00:10:12.842Z,409.3
2023-06-10T00:11:56.340Z,407.5
2023-06-10T00:13:40.040Z,407.8
2023-06-10T00:15:23.750Z,406
2023-06-10T00:17:07.450Z,405.9
2023-06-10T00:18:51.151Z,404.6
2023-06-10T00:20:34.882Z,405
2023-06-10T00:22:18.558Z,407.6
2023-06-10T00:24:02.252Z,409.1
2023-06-10T00:25:45.962Z,412.3
2023-06-10T00:27:29.658Z,415.4
2023-06-10T00:29:13.366Z,418.3
2023-06-10T00:30:57.066Z,418.2
2023-06-10T00:32:40.765Z,415.9
2023-06-10T00:34:24.473Z,415
2023-06-10T00:36:08.174Z,413.4
2023-06-10T00:37:51.868Z,412.2
2023-06-10T00:39:35.579Z,411.2
2023-06-10T00:41:19.286Z,411.6
2023-06-10T00:43:02.984Z,412.8
2023-06-10T00:44:46.681Z,414.1
2023-06-10T00:46:30.387Z,413.9
2023-06-10T00:48:14.093Z,415.3
2023-06-10T00:49:57.788Z,417.9
2023-06-10T00:51:41.504Z,421
2023-06-10T00:53:25.186Z,418.8
2023-06-10T00:55:08.895Z,418.4
2023-06-10T00:56:52.608Z,417.4
2023-06-10T00:58:36.303Z,418.1
2023-06-10T01:00:19.998Z,418.2
2023-06-10T01:02:03.698Z,418.1
2023-06-10T01:03:47.406Z,415.3
2023-06-10T01:05:31.101Z,413.8
2023-06-10T01:07:14.802Z,416.7
2023-06-10T01:08:58.507Z,414.3
2023-06-10T01:10:42.208Z,413.9
2023-06-10T01:12:25.915Z,412.7
2023-06-10T01:14:09.620Z,414.3
2023-06-10T01:15:53.310Z,416.1
2023-06-10T01:17:37.021Z,415.1
2023-06-10T01:19:20.715Z,415.4
2023-06-10T01:21:04.418Z,414.6
2023-06-10T01:22:48.119Z,417.9
2023-06-10T01:24:31.823Z,419.1
2023-06-10T01:26:15.524Z,418.9
2023-06-10T01:27:59.233Z,416.4
2023-06-10T01:29:42.919Z,416.1
2023-06-10T01:31:26.625Z,416.3
2023-06-10T01:33:10.338Z,414.9
2023-06-10T01:34:54.029Z,415.3
2023-06-10T01:36:37.719Z,416.6
2023-06-10T01:38:21.449Z,413.5
2023-06-10T01:40:05.159Z,415.4
2023-06-10T01:41:48.834Z,415
2023-06-10T01:43:32.541Z,417.4
2023-06-10T01:45:16.248Z,419.7
2023-06-10T01:46:59.946Z,418.1
2023-06-10T01:48:43.655Z,417.7
2023-06-10T01:50:27.380Z,419.7
2023-06-10T01:52:11.055Z,418.8
2023-06-10T01:53:54.768Z,420.8
2023-06-10T01:55:38.455Z,421.5
2023-06-10T01:57:22.156Z,419.1
2023-06-10T01:59:05.862Z,421.6
2023-06-10T02:00:49.573Z,422.3
2023-06-10T02:02:33.267Z,418.9
2023-06-10T02:04:16.969Z,419.5
2023-06-10T02:06:00.676Z,420.9
2023-06-10T02:07:44.374Z,421.1
2023-06-10T02:09:28.071Z,422.2
2023-06-10T02:11:11.774Z,419.7
2023-06-10T02:12:55.473Z,415.5
2023-06-10T02:14:39.171Z,416.7
2023-06-10T02:16:22.868Z,415.5
2023-06-10T02:18:06.578Z,414.7
2023-06-10T02:19:50.302Z,414.2
2023-06-10T02:21:33.988Z,415.3
2023-06-10T02:23:17.680Z,417.1
2023-06-10T02:25:01.386Z,419.6
2023-06-10T02:26:45.089Z,419.4
2023-06-10T02:28:28.786Z,417.5
2023-06-10T02:30:12.483Z,416.6
2023-06-10T02:31:56.197Z,419.7
2023-06-10T02:33:39.901Z,420.7
2023-06-10T02:35:23.604Z,420
2023-06-10T02:37:07.305Z,417.5
2023-06-10T02:38:51.000Z,414.9
2023-06-10T02:40:34.713Z,415.1
2023-06-10T02:42:18.401Z,417.3
2023-06-10T02:44:02.105Z,417.8
2023-06-10T02:45:45.810Z,416.5
2023-06-10T02:47:29.509Z,414.8
2023-06-10T02:49:13.221Z,413.6
2023-06-10T02:50:56.920Z,417.6
2023-06-10T02:52:40.621Z,421.6
2023-06-10T02:54:24.389Z,419.4
2023-06-10T02:56:08.033Z,420.8
2023-06-10T02:57:51.746Z,419.1
2023-06-10T02:59:35.439Z,417.1
2023-06-10T03:01:19.131Z,416.3
2023-06-10T03:03:02.841Z,416.3
2023-06-10T03:04:46.537Z,415.1
2023-06-10T03:06:30.240Z,415.3
2023-06-10T03:08:13.942Z,415.9
2023-06-10T03:09:57.644Z,414.7
2023-06-10T03:11:41.345Z,413.1
2023-06-10T03:13:25.060Z,410.1
2023-06-10T03:15:08.761Z,412.2
2023-06-10T03:16:52.457Z,412.7
2023-06-10T03:18:36.163Z,416.9
2023-06-10T03:20:19.854Z,416
2023-06-10T03:22:03.559Z,415.2
2023-06-10T03:23:47.262Z,415.8
2023-06-10T03:25:30.974Z,412.9
2023-06-10T03:27:14.662Z,411.3
2023-06-10T03:28:58.365Z,410.4
2023-06-10T03:30:42.064Z,412.2
2023-06-10T03:32:25.768Z,413.3
2023-06-10T03:34:09.479Z,413.5
2023-06-10T03:35:53.173Z,415.8
2023-06-10T03:37:36.876Z,417.3
2023-06-10T03:39:20.641Z,419.6
2023-06-10T03:41:04.292Z,425.7
2023-06-10T03:42:47.978Z,427.3
2023-06-10T03:44:31.686Z,424.7
2023-06-10T03:46:15.390Z,425.6
2023-06-10T03:47:59.094Z,425.7
2023-06-10T03:49:42.802Z,427.2
2023-06-10T03:51:26.506Z,427.4
2023-06-10T03:53:10.192Z,425.7
2023-06-10T03:54:53.918Z,424.7
2023-06-10T03:56:37.601Z,425.5
2023-06-10T03:58:21.307Z,425.2
2023-06-10T04:00:05.011Z,425.8
2023-06-10T04:01:48.700Z,428.7
2023-06-10T04:03:32.402Z,428.9
2023-06-10T04:05:16.099Z,430.2
2023-06-10T04:06:59.813Z,433.6
2023-06-10T04:08:43.513Z,436.1
2023-06-10T04:10:27.214Z,435.7
2023-06-10T04:12:10.911Z,433.7
2023-06-10T04:13:54.622Z,435.4
2023-06-10T04:15:38.314Z,434.4
2023-06-10T04:17:22.018Z,434
2023-06-10T04:19:05.724Z,430.5
2023-06-10T04:20:49.427Z,431.2
2023-06-10T04:22:33.170Z,434
2023-06-10T04:24:16.823Z,434.1
2023-06-10T04:26:00.530Z,435.3
2023-06-10T04:27:44.234Z,432.3
2023-06-10T04:29:27.937Z,432.7
2023-06-10T04:31:11.627Z,434.4
2023-06-10T04:32:55.340Z,432.6
2023-06-10T04:34:39.048Z,426.5
2023-06-10T04:36:22.787Z,429.3
2023-06-10T04:38:06.437Z,430.6
2023-06-10T04:39:50.138Z,431.4
2023-06-10T04:41:33.859Z,431.6
2023-06-10T04:43:17.545Z,432
2023-06-10T04:46:44.956Z,431.9
2023-06-10T04:48:28.659Z,429.1
2023-06-10T04:50:12.363Z,430.2
2023-06-10T04:51:56.060Z,430.6
2023-06-10T04:57:07.174Z,429.1
2023-06-10T04:58:50.870Z,425.9
2023-06-10T05:00:34.583Z,425.8
2023-06-10T05:02:18.276Z,424.3
2023-06-10T05:04:01.985Z,423.6
2023-06-10T05:05:45.666Z,425.2
2023-06-10T05:07:29.381Z,422.5
2023-06-10T05:09:13.093Z,424.1
2023-06-10T05:10:56.779Z,423.9
2023-06-10T05:12:40.484Z,422.6
2023-06-10T05:14:24.194Z,418.7
2023-06-10T05:16:07.884Z,415
2023-06-10T05:17:51.589Z,413.1
2023-06-10T05:19:35.298Z,411.6
2023-06-10T05:21:19.001Z,409.4
2023-06-10T05:23:02.703Z,408.2
2023-06-10T05:24:46.390Z,408.5
2023-06-10T05:26:30.157Z,406
2023-06-10T05:28:13.799Z,402.6
2023-06-10T05:29:57.508Z,399
2023-06-10T05:33:24.907Z,399.3
2023-06-10T05:35:08.618Z,398.4
2023-06-10T05:36:52.319Z,395.8
2023-06-10T05:38:36.009Z,393
2023-06-10T05:40:19.713Z,392.1
2023-06-10T05:42:03.428Z,394.1
2023-06-10T05:43:47.112Z,397.9
2023-06-10T05:45:30.813Z,397.8
2023-06-10T05:47:14.521Z,398.9
2023-06-10T05:48:58.218Z,403
2023-06-10T05:50:41.932Z,405.1
2023-06-10T05:52:25.624Z,400.3
2023-06-10T05:54:09.328Z,399.2
2023-06-10T05:55:53.030Z,397.8
2023-06-10T05:57:36.729Z,398.6
2023-06-10T05:59:20.452Z,399.5
2023-06-10T06:01:04.123Z,402.2
2023-06-10T06:02:47.828Z,399.4
2023-06-10T06:04:31.533Z,396.2
2023-06-10T06:06:15.227Z,396.6
2023-06-10T06:07:58.936Z,397.9
2023-06-10T06:09:42.634Z,402.1
2023-06-10T06:11:26.345Z,405.3
2023-06-10T06:13:10.038Z,405.4
2023-06-10T06:14:53.763Z,408.4
2023-06-10T06:16:37.454Z,410.9
2023-06-10T06:18:21.155Z,409.3
2023-06-10T06:20:04.843Z,407.2
2023-06-10T06:21:48.554Z,405.8
2023-06-10T06:23:32.323Z,403.5
2023-06-10T06:25:15.957Z,401.5
2023-06-10T06:26:59.681Z,398.9
2023-06-10T06:28:43.374Z,398.2
2023-06-10T06:30:27.071Z,395.9
2023-06-10T06:32:10.770Z,394
2023-06-10T06:33:54.477Z,397.4
2023-06-10T06:35:38.178Z,396.3
2023-06-10T06:37:21.876Z,397.8
2023-06-10T06:39:05.579Z,402.5
2023-06-10T06:40:49.298Z,402.3
2023-06-10T06:42:32.983Z,399.7
2023-06-10T06:44:16.703Z,398.1
2023-06-10T06:46:00.390Z,397.3
2023-06-10T06:47:44.099Z,398.7
2023-06-10T06:49:27.803Z,401.1
2023-06-10T06:51:11.521Z,404.2
2023-06-10T06:52:55.223Z,405.9
2023-06-10T06:54:38.905Z,407.3
2023-06-10T06:56:22.596Z,407.9
2023-06-10T06:58:06.337Z,409.1
2023-06-10T06:59:50.006Z,409.2
2023-06-10T07:01:33.734Z,408.2
2023-06-10T07:03:17.418Z,408.3
2023-06-10T07:05:01.123Z,406.8
2023-06-10T07:06:44.815Z,405.8
2023-06-10T07:08:28.516Z,403.1
2023-06-10T07:10:12.212Z,400.7
2023-06-10T07:11:55.916Z,401.3
2023-06-10T07:13:39.633Z,397
2023-06-10T07:15:23.330Z,396.4
2023-06-10T07:17:07.032Z,396.3
2023-06-10T07:18:50.734Z,393.8
2023-06-10T07:20:34.432Z,393.2
2023-06-10T07:22:18.134Z,397.1
2023-06-10T07:24:01.840Z,396.9
2023-06-10T07:25:45.540Z,398.1
2023-06-10T07:27:29.238Z,397.4
2023-06-10T07:29:12.940Z,398
2023-06-10T07:30:56.643Z,395.4
2023-06-10T07:34:24.048Z,396.4
2023-06-10T07:36:07.756Z,395.6
2023-06-10T07:37:51.450Z,396.4
2023-06-10T07:39:35.155Z,394.5
2023-06-10T07:41:18.860Z,394.6
2023-06-10T07:43:02.577Z,393.6
2023-06-10T07:44:46.262Z,395.1
2023-06-10T07:46:29.958Z,393.4
2023-06-10T07:48:13.672Z,392.9
2023-06-10T07:49:57.362Z,391.4
2023-06-10T07:51:41.057Z,390.7
2023-06-10T07:53:24.768Z,391.7
2023-06-10T07:55:08.468Z,394.3
2023-06-10T07:56:52.172Z,395.6
2023-06-10T08:00:19.622Z,390.5
2023-06-10T08:02:03.285Z,391.8
2023-06-10T08:03:46.988Z,391.1
2023-06-10T08:05:30.683Z,389.4
2023-06-10T08:07:14.392Z,389.6
2023-06-10T08:08:58.087Z,390.8
2023-06-10T08:10:41.789Z,390
2023-06-10T08:12:25.506Z,390.3
2023-06-10T08:15:52.941Z,384.5
2023-06-10T08:17:36.596Z,382.9
2023-06-10T08:19:20.298Z,383.3
2023-06-10T08:21:04.011Z,385.7
2023-06-10T08:22:47.716Z,387.9
2023-06-10T08:24:31.469Z,388
2023-06-10T08:26:15.118Z,386.5
2023-06-10T08:27:58.816Z,384.9
2023-06-10T08:29:42.521Z,387.9
2023-06-10T08:31:26.219Z,387.1
2023-06-10T08:33:09.918Z,389.4
2023-06-10T08:34:53.626Z,390.2
2023-06-10T08:36:37.333Z,390.8
2023-06-10T08:38:21.028Z,392.1
2023-06-10T08:40:04.739Z,388.8
2023-06-10T08:41:48.437Z,386.9
2023-06-10T08:43:32.149Z,385.2
2023-06-10T08:45:15.825Z,384.7
2023-06-10T08:46:59.544Z,381.6
2023-06-10T08:48:43.238Z,384.7
2023-06-10T08:50:26.942Z,385
2023-06-10T08:52:10.647Z,384.2
2023-06-10T08:53:54.355Z,384.4
2023-06-10T08:55:38.073Z,384.4
2023-06-10T08:57:21.770Z,386.4
2023-06-10T08:59:05.463Z,385.6
2023-06-10T09:00:49.169Z,385.9
2023-06-10T09:02:32.867Z,388.8
2023-06-10T09:04:16.559Z,387.6
2023-06-10T09:06:00.265Z,387
2023-06-10T09:07:43.964Z,386
2023-06-10T09:11:11.376Z,384.5
2023-06-10T09:12:55.064Z,384.7
2023-06-10T09:14:38.776Z,387
2023-06-10T09:16:22.476Z,388
2023-06-10T09:18:06.231Z,388.2
2023-06-10T09:19:49.896Z,388.1
2023-06-10T09:21:33.587Z,385.1
2023-06-10T09:23:17.276Z,384.8
2023-06-10T09:26:44.697Z,383.1
2023-06-10T09:28:28.394Z,382.8
2023-06-10T09:30:12.101Z,380.8
2023-06-10T09:31:55.794Z,380.8
2023-06-10T09:33:39.502Z,381.7
2023-06-10T09:37:06.905Z,382.6
2023-06-10T09:38:50.616Z,381.8
2023-06-10T09:40:34.330Z,383.5
2023-06-10T09:42:18.006Z,386.3
2023-06-10T09:44:01.715Z,382.5
2023-06-10T09:45:52.409Z,382.4
2023-06-10T09:47:29.116Z,380.3
2023-06-10T09:49:12.814Z,379.3
2023-06-10T09:50:56.525Z,380.8
2023-06-10T09:52:40.220Z,380.3
2023-06-10T09:54:23.928Z,379.5
2023-06-10T09:56:07.621Z,379.1
2023-06-10T09:57:51.332Z,378.3
2023-06-10T09:59:35.025Z,379.6
2023-06-10T10:01:18.733Z,379
2023-06-10T10:03:02.451Z,376.3
2023-06-10T10:04:46.130Z,378.3
2023-06-10T10:06:29.850Z,380.9
2023-06-10T10:08:13.539Z,383.9
2023-06-10T10:11:40.943Z,383
2023-06-10T10:13:24.763Z,385.1
2023-06-10T10:15:08.379Z,385
2023-06-10T10:16:52.058Z,383.3
2023-06-10T10:18:35.781Z,381.7
2023-06-10T10:20:19.452Z,378.9
2023-06-10T10:22:03.159Z,380.7
2023-06-10T10:23:46.863Z,382
2023-06-10T10:25:30.579Z,381.6
2023-06-10T10:27:14.258Z,379.1
2023-06-10T10:28:57.975Z,380.4
2023-06-10T10:30:41.667Z,381.8
2023-06-10T10:32:25.360Z,380
2023-06-10T10:34:09.058Z,380
2023-06-10T10:35:52.770Z,380.9
2023-06-10T10:37:36.464Z,379.3
2023-06-10T10:39:20.173Z,379.5
2023-06-10T10:41:03.897Z,381
2023-06-10T10:42:47.569Z,381.3
2023-06-10T10:44:31.312Z,382.3
2023-06-10T10:46:14.975Z,380.9
2023-06-10T10:47:58.680Z,380.1
2023-06-10T10:49:42.385Z,382.3
2023-06-10T10:51:26.076Z,378.8
2023-06-10T10:53:09.782Z,384.5
2023-06-10T10:54:53.475Z,390.9
2023-06-10T10:56:37.186Z,392.6
2023-06-10T10:58:20.892Z,394.4
2023-06-10T11:00:04.590Z,393.6
2023-06-10T11:01:48.290Z,395.8
2023-06-10T11:03:32.004Z,394.1
2023-06-10T11:05:15.702Z,395.3
2023-06-10T11:06:59.389Z,396.2
2023-06-10T11:08:43.098Z,396.2
2023-06-10T11:10:26.802Z,392.8
2023-06-10T11:12:10.512Z,390.4
2023-06-10T11:13:54.199Z,389.8
2023-06-10T11:15:37.904Z,387.8
2023-06-10T11:17:21.648Z,386.5
2023-06-10T11:19:05.311Z,386.4
2023-06-10T11:20:49.013Z,386.3
2023-06-10T11:22:32.745Z,386.4
2023-06-10T11:24:16.417Z,383.5
2023-06-10T11:26:00.122Z,386.4
2023-06-10T11:27:43.820Z,390.4
2023-06-10T11:29:27.527Z,392.9
2023-06-10T11:31:11.228Z,394.2
2023-06-10T11:32:54.926Z,396.3
2023-06-10T11:34:38.634Z,396.6
2023-06-10T11:36:22.348Z,397.3
2023-06-10T11:38:06.122Z,397.5
2023-06-10T11:39:49.727Z,397.3
2023-06-10T11:41:33.478Z,396.8
2023-06-10T11:43:17.132Z,396.9
2023-06-10T11:45:00.874Z,396.2
2023-06-10T11:46:44.553Z,397.3
2023-06-10T11:48:28.237Z,399.5
2023-06-10T11:50:11.953Z,401.7
2023-06-10T11:51:55.711Z,403.5
2023-06-10T11:53:39.347Z,404.5
2023-06-10T11:55:23.058Z,406.5
2023-06-10T11:57:06.780Z,406.6
2023-06-10T12:00:34.221Z,409.4
2023-06-10T12:02:17.869Z,412.9
2023-06-10T12:04:01.572Z,416.6
2023-06-10T12:05:45.268Z,417.6
2023-06-10T12:07:28.969Z,417.9
2023-06-10T12:09:12.669Z,420.7
2023-06-10T12:10:56.367Z,420.9
2023-06-10T12:12:40.079Z,420.1
2023-06-10T12:14:23.776Z,420.9
2023-06-10T12:16:07.490Z,424.1
2023-06-10T12:17:51.181Z,425.5
2023-06-10T12:19:34.873Z,424.1
2023-06-10T12:21:18.590Z,426.2
2023-06-10T12:23:02.309Z,426.8
2023-06-10T12:24:45.992Z,426
2023-06-10T12:26:29.691Z,424.4
2023-06-10T12:28:13.394Z,422.4
2023-06-10T12:29:57.102Z,421.2
2023-06-10T12:31:40.815Z,424.6
2023-06-10T12:33:24.547Z,425.4
2023-06-10T12:35:08.201Z,423.6
2023-06-10T12:36:51.919Z,425.9
2023-06-10T12:38:35.662Z,424.2
2023-06-10T12:40:19.310Z,423.8
2023-06-10T12:42:03.009Z,425.5
2023-06-10T12:43:46.716Z,426.6
2023-06-10T12:45:30.421Z,424.5
2023-06-10T12:47:14.119Z,423.8
2023-06-10T12:48:57.814Z,423.3
2023-06-10T12:50:41.550Z,422.4
2023-06-10T12:52:25.231Z,424.1
2023-06-10T12:55:52.701Z,422
2023-06-10T12:57:36.336Z,423.3
2023-06-10T12:59:20.036Z,423.4
2023-06-10T13:01:03.740Z,425.8
2023-06-10T13:02:47.479Z,425.6
2023-06-10T13:04:31.250Z,426.2
2023-06-10T13:06:14.865Z,425.5
2023-06-10T13:07:58.590Z,425.3
2023-06-10T13:09:42.240Z,422.5
2023-06-10T13:11:25.991Z,423.6
2023-06-10T13:13:09.672Z,426.4
2023-06-10T13:14:53.394Z,426.4
2023-06-10T13:16:37.055Z,423.7
2023-06-10T13:18:20.759Z,423.6
2023-06-10T13:20:04.485Z,423.7
2023-06-10T13:21:48.153Z,428.3
2023-06-10T13:23:31.975Z,425.9
2023-06-10T13:25:15.604Z,428
2023-06-10T13:26:59.262Z,427.3
2023-06-10T13:28:42.963Z,422.7
2023-06-10T13:30:26.748Z,420.6
2023-06-10T13:32:10.382Z,423.8
2023-06-10T13:33:54.122Z,425.3
2023-06-10T13:35:37.772Z,428.2
2023-06-10T13:37:21.478Z,428
2023-06-10T13:39:05.169Z,427.9
2023-06-10T13:40:48.966Z,426.3
2023-06-10T13:42:32.582Z,427.2
2023-06-10T13:44:16.287Z,430.4
2023-06-10T13:46:00.019Z,427.9
2023-06-10T13:47:43.723Z,427.5
2023-06-10T13:49:27.421Z,425.8
2023-06-10T13:51:11.091Z,426.1
2023-06-10T13:52:54.909Z,423.2
2023-06-10T13:54:38.484Z,422.9
2023-06-10T13:56:22.194Z,424
2023-06-10T13:58:05.898Z,424.2
2023-06-10T13:59:49.628Z,426.7
2023-06-10T14:01:33.295Z,428.2
2023-06-10T14:03:17.091Z,427.9
2023-06-10T14:05:00.726Z,429.2
2023-06-10T14:06:44.443Z,432.2
2023-06-10T14:08:28.100Z,433.1
2023-06-10T14:10:11.808Z,436.1
2023-06-10T14:11:55.597Z,436.4
2023-06-10T14:13:39.216Z,436.3
2023-06-10T14:15:22.955Z,437
2023-06-10T14:17:06.622Z,434.3
2023-06-10T14:18:50.335Z,431.8
2023-06-10T14:20:34.020Z,436.2
2023-06-10T14:22:17.752Z,437.2
2023-06-10T14:24:01.496Z,438
2023-06-10T14:25:45.278Z,441.9
2023-06-10T14:27:28.982Z,446.6
2023-06-10T14:29:12.784Z,448.2
2023-06-10T14:30:56.230Z,455.6
2023-06-10T14:32:39.931Z,461.2
2023-06-10T14:34:23.628Z,467.8
2023-06-10T14:36:07.332Z,471.8
2023-06-10T14:37:51.045Z,478
2023-06-10T14:39:34.737Z,487.2
2023-06-10T14:41:18.450Z,493.6
2023-06-10T14:43:02.141Z,497.1
2023-06-10T14:44:45.852Z,499.2
2023-06-10T14:48:13.246Z,509.1
2023-06-10T14:49:57.014Z,513.9
2023-06-10T14:51:40.664Z,515
2023-06-10T14:53:24.358Z,517.1
2023-06-10T14:55:08.058Z,519.3
2023-06-10T14:56:51.756Z,521.1
2023-06-10T14:58:35.469Z,521.8
2023-06-10T15:00:19.174Z,521.2
2023-06-10T15:02:02.871Z,519.8
2023-06-10T15:03:46.574Z,519.9
2023-06-10T15:05:30.282Z,519.7
2023-06-10T15:07:13.998Z,518.3
2023-06-10T15:08:57.686Z,518.3
2023-06-10T15:10:41.429Z,520.4
2023-06-10T15:12:25.100Z,518.1
2023-06-10T15:14:08.802Z,517.9
2023-06-10T15:15:52.526Z,517.5
2023-06-10T15:17:36.206Z,518.9
2023-06-10T15:19:19.918Z,519.9
2023-06-10T15:21:03.609Z,521.7
2023-06-10T15:22:47.322Z,530.6
2023-06-10T15:24:31.009Z,531.5
2023-06-10T15:26:14.715Z,526.6
2023-06-10T15:27:58.446Z,523.8
2023-06-10T15:29:42.136Z,520.8
2023-06-10T15:31:25.863Z,527.2
2023-06-10T15:33:09.528Z,533.2
2023-06-10T15:34:53.214Z,529.7
2023-06-10T15:36:36.941Z,526
2023-06-10T15:38:20.627Z,520.1
2023-06-10T15:40:04.333Z,519
2023-06-10T15:41:48.054Z,519.2
2023-06-10T15:43:31.763Z,519.5
2023-06-10T15:45:15.431Z,521.5
2023-06-10T15:46:59.269Z,521.2
2023-06-10T15:48:42.833Z,518.9
2023-06-10T15:50:26.574Z,520.8
2023-06-10T15:52:10.314Z,518
2023-06-10T15:53:53.958Z,515.8
2023-06-10T15:55:37.655Z,515
2023-06-10T15:57:21.349Z,512.4
2023-06-10T15:59:05.053Z,510.9
2023-06-10T16:00:48.785Z,515.5
2023-06-10T16:02:32.484Z,515
2023-06-10T16:04:16.168Z,512.5
2023-06-10T16:05:59.866Z,510.5
2023-06-10T16:07:43.572Z,513.3
2023-06-10T16:09:27.320Z,515.3
2023-06-10T16:11:10.961Z,515.4
2023-06-10T16:12:54.673Z,516.5
2023-06-10T16:14:38.388Z,513.6
2023-06-10T16:16:22.076Z,511.5
2023-06-10T16:18:05.784Z,513.6
2023-06-10T16:19:49.492Z,515
2023-06-10T16:21:33.265Z,517.7
2023-06-10T16:23:16.897Z,518.9
2023-06-10T16:25:00.579Z,518.9
2023-06-10T16:26:44.293Z,515.7
2023-06-10T16:28:27.997Z,511
2023-06-10T16:30:11.698Z,507.6
2023-06-10T16:31:55.410Z,507.2
2023-06-10T16:33:39.095Z,507.6
2023-06-10T16:35:22.800Z,511.8
2023-06-10T16:37:06.504Z,510.7
2023-06-10T16:38:50.209Z,511.5
2023-06-10T16:40:33.915Z,510.6
2023-06-10T16:42:17.610Z,513.2
2023-06-10T16:44:01.301Z,516.5
2023-06-10T16:45:45.016Z,516.2
2023-06-10T16:47:28.720Z,515.5
2023-06-10T16:49:12.418Z,512.9
2023-06-10T16:50:56.125Z,514.1
2023-06-10T16:52:39.821Z,515
2023-06-10T16:54:23.522Z,517.4
2023-06-10T16:56:07.248Z,518.8
2023-06-10T16:57:50.939Z,519.4
2023-06-10T16:59:34.643Z,517.8
2023-06-10T17:01:18.335Z,516.6
2023-06-10T17:03:02.037Z,514.2
2023-06-10T17:04:45.737Z,511.4
2023-06-10T17:06:29.477Z,507.2
2023-06-10T17:08:13.131Z,506.1
2023-06-10T17:09:56.835Z,508.2
2023-06-10T17:11:40.540Z,504.4
2023-06-10T17:13:24.246Z,504.9
2023-06-10T17:15:07.940Z,504.5
2023-06-10T17:16:51.646Z,504.1
2023-06-10T17:18:35.337Z,506
2023-06-10T17:20:19.053Z,505.4
2023-06-10T17:22:02.746Z,505.3
2023-06-10T17:23:46.447Z,508
2023-06-10T17:25:30.183Z,507.8
2023-06-10T17:27:13.859Z,509.6
2023-06-10T17:28:57.555Z,510.1
2023-06-10T17:30:41.262Z,505.8
2023-06-10T17:32:24.955Z,502
2023-06-10T17:34:08.666Z,505.9
2023-06-10T17:35:52.373Z,505.7
2023-06-10T17:37:36.071Z,505.6
2023-06-10T17:39:19.767Z,503.5
2023-06-10T17:41:03.481Z,504.3
2023-06-10T17:42:47.172Z,502.3
2023-06-10T17:44:30.876Z,501.8
2023-06-10T17:46:14.576Z,504.3
2023-06-10T17:47:58.271Z,506.1
2023-06-10T17:49:41.989Z,504.4
2023-06-10T17:51:25.678Z,502.3
2023-06-10T17:53:09.385Z,502.3
2023-06-10T17:54:53.093Z,503.7
2023-06-10T17:56:36.787Z,501.4
2023-06-10T17:58:20.489Z,497.3
2023-06-10T18:00:04.188Z,494.7
2023-06-10T18:01:47.892Z,496.7
2023-06-10T18:03:31.668Z,498.6
2023-06-10T18:05:15.309Z,498
2023-06-10T18:06:58.998Z,497.5
2023-06-10T18:08:42.700Z,495.9
2023-06-10T18:10:26.403Z,499.5
2023-06-10T18:12:10.110Z,497.4
2023-06-10T18:13:53.801Z,498.5
2023-06-10T18:15:37.507Z,494
2023-06-10T18:17:21.231Z,490.6
2023-06-10T18:19:04.906Z,490.1
2023-06-10T18:20:48.620Z,495.2
2023-06-10T18:22:32.317Z,496.8
2023-06-10T18:24:16.022Z,497.2
2023-06-10T18:25:59.721Z,497.1
2023-06-10T18:27:43.418Z,495
2023-06-10T18:29:27.126Z,495.9
2023-06-10T18:31:10.825Z,492.9
2023-06-10T18:32:54.529Z,490.8
2023-06-10T18:34:38.235Z,493.8
2023-06-10T18:36:21.934Z,495.3
2023-06-10T18:38:05.656Z,498
2023-06-10T18:39:49.342Z,495.3
2023-06-10T18:41:33.044Z,497.3
2023-06-10T18:43:16.738Z,495.6
2023-06-10T18:45:00.443Z,494.6
2023-06-10T18:46:44.146Z,495.7
2023-06-10T18:48:27.846Z,493.7
2023-06-10T18:50:11.548Z,493.7
2023-06-10T18:51:55.251Z,491.2
2023-06-10T18:53:38.961Z,490.2
2023-06-10T18:55:22.649Z,488.2
2023-06-10T18:57:06.358Z,489.3
2023-06-10T18:58:50.066Z,488.1
2023-06-10T19:00:33.761Z,487.7
2023-06-10T19:02:17.456Z,486.6
2023-06-10T19:04:01.168Z,487.7
2023-06-10T19:05:44.871Z,486.1
2023-06-10T19:07:28.579Z,485.8
2023-06-10T19:09:12.270Z,485.4
2023-06-10T19:10:55.975Z,488.3
2023-06-10T19:12:39.679Z,486.4
2023-06-10T19:14:23.378Z,488.4
2023-06-10T19:16:07.087Z,489.8
2023-06-10T19:17:50.782Z,490.6
2023-06-10T19:19:34.486Z,489.8
2023-06-10T19:21:18.191Z,488
2023-06-10T19:23:01.891Z,487.4
2023-06-10T19:24:45.593Z,488.6
2023-06-10T19:26:29.296Z,486.2
2023-06-10T19:28:12.996Z,480.3
2023-06-10T19:29:56.700Z,482.7
2023-06-10T19:31:40.396Z,484.5
2023-06-10T19:33:24.112Z,484.9
2023-06-10T19:35:07.797Z,483.4
2023-06-10T19:36:51.508Z,482.1
2023-06-10T19:40:18.912Z,483.8
2023-06-10T19:42:02.618Z,481.1
2023-06-10T19:43:46.318Z,482.2
2023-06-10T19:45:30.031Z,485.3
2023-06-10T19:47:13.739Z,484.6
2023-06-10T19:48:57.423Z,486.6
2023-06-10T19:50:41.123Z,488.8
2023-06-10T19:52:24.828Z,488.9
2023-06-10T19:54:08.539Z,488.9
2023-06-10T19:55:52.236Z,488
2023-06-10T19:57:35.941Z,486.2
2023-06-10T19:59:19.635Z,484.5
2023-06-10T20:01:03.339Z,481.1
2023-06-10T20:02:47.047Z,479.4
2023-06-10T20:04:30.745Z,477.4
2023-06-10T20:06:14.449Z,476.8
2023-06-10T20:07:58.147Z,477.5
2023-06-10T20:09:41.854Z,479.6
2023-06-10T20:11:25.561Z,481.5
2023-06-10T20:13:09.290Z,483.2
2023-06-10T20:14:52.947Z,484.3
2023-06-10T20:16:36.671Z,477.3
2023-06-10T20:18:20.354Z,475.1
2023-06-10T20:20:04.065Z,475
2023-06-10T20:21:47.756Z,476.5
2023-06-10T20:23:31.457Z,477.6
2023-06-10T20:25:15.165Z,476.5
2023-06-10T20:26:58.861Z,478.8
2023-06-10T20:28:42.560Z,478.3
2023-06-10T20:30:26.262Z,479.2
2023-06-10T20:32:09.969Z,478.8
2023-06-10T20:33:53.666Z,478.6
2023-06-10T20:35:37.368Z,478.1
2023-06-10T20:37:21.073Z,476.1
2023-06-10T20:39:04.778Z,471.9
2023-06-10T20:40:48.466Z,467.9
2023-06-10T20:42:32.169Z,469.9
2023-06-10T20:44:15.879Z,472.1
2023-06-10T20:45:59.577Z,472.4
2023-06-10T20:47:43.283Z,476.2
2023-06-10T20:49:26.982Z,477.9
2023-06-10T20:51:10.686Z,475.3
2023-06-10T20:52:54.416Z,474.2
2023-06-10T20:54:38.104Z,473.7
2023-06-10T20:56:21.837Z,473.5
2023-06-10T20:58:05.502Z,477.9
2023-06-10T20:59:49.206Z,479.6
2023-06-10T21:01:32.913Z,482.5
2023-06-10T21:03:16.603Z,485.5
2023-06-10T21:05:00.348Z,488.1
2023-06-10T21:06:44.011Z,487.6
2023-06-10T21:08:27.714Z,485.7
2023-06-10T21:10:11.420Z,483.7
2023-06-10T21:11:55.112Z,479.7
2023-06-10T21:13:38.817Z,480.4
2023-06-10T21:15:22.527Z,481.9
2023-06-10T21:17:06.214Z,482.9
2023-06-10T21:18:49.924Z,483.6
2023-06-10T21:20:33.626Z,483.8
2023-06-10T21:22:17.331Z,480.4
2023-06-10T21:24:01.038Z,480.6
2023-06-10T21:25:44.729Z,480.6
2023-06-10T21:27:28.433Z,483.4
2023-06-10T21:29:12.144Z,480.5
2023-06-10T21:30:55.835Z,480.9
2023-06-10T21:32:39.564Z,481.7
2023-06-10T21:34:23.263Z,485
2023-06-10T21:36:06.949Z,482.6
2023-06-10T21:37:50.657Z,481
2023-06-10T21:39:34.420Z,482.3
2023-06-10T21:41:18.053Z,486
2023-06-10T21:43:01.763Z,485.5
2023-06-10T21:44:45.464Z,482.5
2023-06-10T21:46:29.162Z,482.8
2023-06-10T21:48:12.881Z,483.1
2023-06-10T21:49:56.569Z,481.9
2023-06-10T21:51:40.277Z,483.1
2023-06-10T21:53:23.958Z,482.7
2023-06-10T21:55:07.669Z,484.4
2023-06-10T21:56:51.374Z,484
2023-06-10T21:58:35.069Z,483.2
2023-06-10T22:00:18.777Z,485.2
2023-06-10T22:02:02.503Z,486.5
2023-06-10T22:03:46.180Z,483.5
2023-06-10T22:05:29.920Z,479.7
2023-06-10T22:07:13.582Z,479.2
2023-06-10T22:08:57.295Z,480
2023-06-10T22:10:40.998Z,478.9
2023-06-10T22:12:24.702Z,480.2
2023-06-10T22:14:08.397Z,484.1
2023-06-10T22:15:52.092Z,485.6
2023-06-10T22:17:35.804Z,485.7
2023-06-10T22:19:19.509Z,486.2
2023-06-10T22:21:03.212Z,485.8
2023-06-10T22:22:46.902Z,487.9
2023-06-10T22:24:30.632Z,491.2
2023-06-10T22:26:14.313Z,488.2
2023-06-10T22:27:58.012Z,485.9
2023-06-10T22:29:41.707Z,485.3
2023-06-10T22:31:25.408Z,485.1
2023-06-10T22:33:09.169Z,486.2
2023-06-10T22:34:52.834Z,486.5
2023-06-10T22:36:36.549Z,487.8
2023-06-10T22:38:20.267Z,486.2
2023-06-10T22:40:03.908Z,486.3
2023-06-10T22:41:47.623Z,485.7
2023-06-10T22:43:31.335Z,484.8
2023-06-10T22:45:15.032Z,485.3
2023-06-10T22:46:58.734Z,483.5
2023-06-10T22:48:42.435Z,482.6